Wiscoy, Minnesota
Current Conditions -  °F | °C
As of 12:33 PM on Saturday 25 Oct 2014 (Local Time) from KONA Reporting Station
Clear Clear  
Wind Chill: 63°   Ceiling: Unl
Heat Index: 63°   Visibility: 10mi
Dew Point: 34°   Wind: 14mph
Humidity: 34%   Direction: 330°NNW
Pressure: 30.02"   Gusts: 17mph
Location:  43.9823°N, 91.6349°W
Report Text: KONA 251733Z AUTO 33012G15KT 10SM CLR 17/01 A3002 RMK AO2
Loading
Personal Weather Stations






























Interactive Weather Map
Tropical Storm Tracking
New forecast layout! Learn more

10-Day Weather Forecast

Advertisements
Track Severe Weather on mobile